Akron, Alabama
Current Conditions -  °F | °C
As of 3:53 PM on Thursday 23 Oct 2014 (Local Time) from KTCL Reporting Station
Clear Clear  
Wind Chill: 70°   Ceiling: Unl
Heat Index: 70°   Visibility: 10mi
Dew Point: 42°   Wind: 7mph
Humidity: 36%   Direction: 330°NNW
Pressure: 30.08"   Gusts: NA
Location:  32.88°N, 87.74°W
Report Text: KTCL 232053Z 33006KT 10SM CLR 21/06 A3008 RMK AO2 SLP185 T02110056 55016
Loading
Personal Weather Stations






























Interactive Weather Map New forecast layout! Learn more

10-Day Weather Forecast

Advertisements
Track Severe Weather on mobile